Time;durP1;ratioP1;P1;durP2;ratioP2;P2;SDS_P1;SDS_P2;PMS_P1;PMS_P2;Temp;Humidity;BMP_temperature;BMP_pressure;BME280_temperature;BME280_humidity;BME280_pressure;Samples;Min_cycle;Max_cycle;Signal;HPM_P1;HPM_P2
2023/09/22 00:00:04;;;;;;;6.68;2.50;;;;;;;;;;10354767;28;20450;-60
2023/09/22 00:05:07;;;;;;;4.07;2.22;;;;;;;;;;10347980;28;20028;-65
2023/09/22 00:10:08;;;;;;;6.93;2.90;;;;;;;;;;10355469;28;20018;-64
2023/09/22 00:15:10;;;;;;;6.65;2.80;;;;;;;;;;10358830;28;20018;-64
2023/09/22 00:20:13;;;;;;;7.53;3.00;;;;;;;;;;10346970;28;20037;-63
2023/09/22 00:25:16;;;;;;;9.05;2.42;;;;;;;;;;10352587;28;20038;-63
2023/09/22 00:30:16;;;;;;;7.00;2.47;;;;;;;;;;10351443;28;20498;-62
2023/09/22 00:35:17;;;;;;;7.07;2.72;;;;;;;;;;10361176;28;20037;-62
2023/09/22 00:40:18;;;;;;;7.32;2.65;;;;;;;;;;10338311;28;20026;-63
2023/09/22 00:45:19;;;;;;;5.63;2.53;;;;;;;;;;10350851;28;20031;-62
2023/09/22 00:50:19;;;;;;;7.25;2.50;;;;;;;;;;10370254;28;20049;-63
2023/09/22 00:55:20;;;;;;;12.98;2.70;;;;;;;;;;10336106;28;20052;-60
2023/09/22 01:00:21;;;;;;;6.38;2.78;;;;;;;;;;10363961;28;20025;-60
2023/09/22 01:05:21;;;;;;;6.05;2.88;;;;;;;;;;10357081;28;20099;-60
2023/09/22 01:10:23;;;;;;;6.60;2.90;;;;;;;;;;10362510;28;20026;-60
2023/09/22 01:15:23;;;;;;;6.15;2.70;;;;;;;;;;10344418;28;20449;-60
2023/09/22 01:20:24;;;;;;;6.75;3.13;;;;;;;;;;10358644;28;20021;-60
2023/09/22 01:25:25;;;;;;;7.85;2.83;;;;;;;;;;10353150;28;20491;-60
2023/09/22 01:30:26;;;;;;;5.90;2.67;;;;;;;;;;10357749;28;20401;-60
2023/09/22 01:35:26;;;;;;;6.88;2.88;;;;;;;;;;10356143;28;20053;-61
2023/09/22 01:40:27;;;;;;;7.88;2.55;;;;;;;;;;10356440;28;20045;-60
2023/09/22 01:45:27;;;;;;;7.63;2.95;;;;;;;;;;10355187;28;20046;-60
2023/09/22 01:50:28;;;;;;;4.97;2.83;;;;;;;;;;10353910;28;20080;-60
2023/09/22 01:55:29;;;;;;;14.20;3.08;;;;;;;;;;10343716;28;20113;-60
2023/09/22 02:00:32;;;;;;;5.15;2.75;;;;;;;;;;10342758;28;20030;-60
2023/09/22 02:05:34;;;;;;;7.63;2.70;;;;;;;;;;10343398;28;20042;-61
2023/09/22 02:10:35;;;;;;;6.50;2.45;;;;;;;;;;10343080;28;20030;-61
2023/09/22 02:15:36;;;;;;;8.10;2.55;;;;;;;;;;10351124;28;20493;-61
2023/09/22 02:20:37;;;;;;;8.23;2.70;;;;;;;;;;10365704;28;20396;-61
2023/09/22 02:25:37;;;;;;;5.97;2.70;;;;;;;;;;10358225;28;20030;-60
2023/09/22 02:30:39;;;;;;;7.53;2.92;;;;;;;;;;10360700;28;20030;-60
2023/09/22 02:35:42;;;;;;;10.25;2.65;;;;;;;;;;10335109;28;20058;-60
2023/09/22 02:40:46;;;;;;;11.68;2.70;;;;;;;;;;10354367;28;20399;-60
2023/09/22 02:45:46;;;;;;;7.40;2.90;;;;;;;;;;10334085;28;20047;-60
2023/09/22 02:50:47;;;;;;;9.77;3.10;;;;;;;;;;10351910;28;20023;-60
2023/09/22 02:55:47;;;;;;;4.38;2.70;;;;;;;;;;10352956;28;20040;-60
2023/09/22 03:00:48;;;;;;;6.32;2.95;;;;;;;;;;10352973;28;20030;-60
2023/09/22 03:05:49;;;;;;;7.03;2.83;;;;;;;;;;10328725;28;20323;-60
2023/09/22 03:10:50;;;;;;;8.88;3.17;;;;;;;;;;10352719;28;20036;-61
2023/09/22 03:15:50;;;;;;;4.22;2.70;;;;;;;;;;10340018;28;20083;-61
2023/09/22 03:20:51;;;;;;;8.65;2.85;;;;;;;;;;10343685;28;20109;-61
2023/09/22 03:25:51;;;;;;;6.40;3.03;;;;;;;;;;10340853;28;20386;-61
2023/09/22 03:30:52;;;;;;;9.70;3.20;;;;;;;;;;10353472;28;20026;-60
2023/09/22 03:35:53;;;;;;;8.52;2.72;;;;;;;;;;10335624;28;20126;-60
2023/09/22 03:40:59;;;;;;;8.48;3.40;;;;;;;;;;10358065;28;20026;-61
2023/09/22 03:46:00;;;;;;;12.15;3.33;;;;;;;;;;10327051;28;20070;-61
2023/09/22 03:51:00;;;;;;;8.50;3.25;;;;;;;;;;10351824;28;20540;-61
2023/09/22 03:56:02;;;;;;;6.18;2.90;;;;;;;;;;10339389;28;20030;-62
2023/09/22 04:01:08;;;;;;;7.50;3.13;;;;;;;;;;10339938;28;20061;-61
2023/09/22 04:06:09;;;;;;;7.28;3.47;;;;;;;;;;10327807;28;20081;-61
2023/09/22 04:11:09;;;;;;;8.85;3.00;;;;;;;;;;10328837;28;20034;-61
2023/09/22 04:16:10;;;;;;;8.30;3.22;;;;;;;;;;10369269;28;20044;-61
2023/09/22 04:21:10;;;;;;;7.65;2.50;;;;;;;;;;10357430;28;20026;-61
2023/09/22 04:26:11;;;;;;;4.30;2.72;;;;;;;;;;10358485;28;20076;-61
2023/09/22 04:31:12;;;;;;;5.43;2.72;;;;;;;;;;10359540;28;20473;-61
2023/09/22 04:36:13;;;;;;;10.73;3.47;;;;;;;;;;10357579;28;20034;-59
2023/09/22 04:41:13;;;;;;;7.72;3.15;;;;;;;;;;10347277;28;20030;-59
2023/09/22 04:46:19;;;;;;;11.10;3.47;;;;;;;;;;10339092;28;20166;-59
2023/09/22 04:51:19;;;;;;;7.53;3.00;;;;;;;;;;10363491;28;20050;-59
2023/09/22 04:56:21;;;;;;;6.47;2.67;;;;;;;;;;10338799;28;20029;-59
2023/09/22 05:01:24;;;;;;;11.15;2.55;;;;;;;;;;10352770;28;20026;-58
2023/09/22 05:06:27;;;;;;;9.35;3.28;;;;;;;;;;10349235;28;20026;-58
2023/09/22 05:11:28;;;;;;;6.03;2.80;;;;;;;;;;10362460;28;20482;-60
2023/09/22 05:16:29;;;;;;;5.22;2.30;;;;;;;;;;10357577;28;20037;-60
2023/09/22 05:21:30;;;;;;;11.13;2.67;;;;;;;;;;10354202;28;20217;-59
2023/09/22 05:26:30;;;;;;;4.10;2.40;;;;;;;;;;10345971;28;21447;-59
2023/09/22 05:31:31;;;;;;;5.80;2.80;;;;;;;;;;10358116;28;20409;-59
2023/09/22 05:36:32;;;;;;;4.28;2.28;;;;;;;;;;10348249;28;20120;-59
2023/09/22 05:41:32;;;;;;;14.25;2.70;;;;;;;;;;10358614;28;20084;-59
2023/09/22 05:46:33;;;;;;;5.18;2.22;;;;;;;;;;10354203;28;20252;-59
2023/09/22 05:51:35;;;;;;;7.35;2.85;;;;;;;;;;10336713;28;20049;-59
2023/09/22 05:56:36;;;;;;;7.03;2.80;;;;;;;;;;10334300;28;20038;-58
2023/09/22 06:01:37;;;;;;;7.10;2.60;;;;;;;;;;10343824;28;20470;-59
2023/09/22 06:06:38;;;;;;;9.27;2.72;;;;;;;;;;10352027;28;20021;-58
2023/09/22 06:11:39;;;;;;;10.85;2.97;;;;;;;;;;10354268;28;20101;-59
2023/09/22 06:16:40;;;;;;;11.40;2.80;;;;;;;;;;10355402;28;20038;-59
2023/09/22 06:21:40;;;;;;;7.35;2.92;;;;;;;;;;10341156;28;20018;-59
2023/09/22 06:26:41;;;;;;;11.60;2.83;;;;;;;;;;10343418;28;20097;-59
2023/09/22 06:31:42;;;;;;;11.80;3.05;;;;;;;;;;10343035;28;20037;-58
2023/09/22 06:36:43;;;;;;;12.25;2.92;;;;;;;;;;10341511;28;20030;-59
2023/09/22 06:41:43;;;;;;;5.43;2.42;;;;;;;;;;10341253;28;20084;-59
2023/09/22 06:46:44;;;;;;;9.60;2.65;;;;;;;;;;10333608;28;20084;-59
2023/09/22 06:51:44;;;;;;;6.22;2.55;;;;;;;;;;10353016;28;20030;-58
2023/09/22 06:56:46;;;;;;;5.30;2.42;;;;;;;;;;10361467;28;20033;-59
2023/09/22 07:01:47;;;;;;;5.25;2.67;;;;;;;;;;10352648;28;20053;-59
2023/09/22 07:06:48;;;;;;;7.95;2.47;;;;;;;;;;10352416;28;20053;-59
2023/09/22 07:11:49;;;;;;;7.95;2.65;;;;;;;;;;10351841;28;20022;-59
2023/09/22 07:16:49;;;;;;;9.55;2.58;;;;;;;;;;10351952;28;20432;-59
2023/09/22 07:21:51;;;;;;;6.88;2.35;;;;;;;;;;10351291;28;20080;-59
2023/09/22 07:26:52;;;;;;;6.57;2.50;;;;;;;;;;10362969;28;20026;-59
2023/09/22 07:31:52;;;;;;;6.90;3.03;;;;;;;;;;10351405;28;20080;-59
2023/09/22 07:36:53;;;;;;;10.45;2.65;;;;;;;;;;10363431;28;20541;-59
2023/09/22 07:41:54;;;;;;;8.85;2.63;;;;;;;;;;10362532;28;20125;-59
2023/09/22 07:46:58;;;;;;;3.60;2.30;;;;;;;;;;10343066;28;20124;-59
2023/09/22 07:51:59;;;;;;;7.32;2.42;;;;;;;;;;10371671;28;20033;-59
2023/09/22 07:56:59;;;;;;;6.07;2.40;;;;;;;;;;10359992;28;20041;-58
2023/09/22 08:02:00;;;;;;;4.55;2.00;;;;;;;;;;10359668;28;20026;-59
2023/09/22 08:07:05;;;;;;;6.47;2.33;;;;;;;;;;10351124;28;20030;-58
2023/09/22 08:12:07;;;;;;;3.72;2.03;;;;;;;;;;10360168;28;20030;-58
2023/09/22 08:17:07;;;;;;;8.10;2.60;;;;;;;;;;10355193;28;20065;-58
2023/09/22 08:22:10;;;;;;;6.63;2.47;;;;;;;;;;10339822;28;20105;-58
2023/09/22 08:27:11;;;;;;;6.18;2.72;;;;;;;;;;10353281;28;20532;-58
2023/09/22 08:32:12;;;;;;;2.97;1.98;;;;;;;;;;10369434;28;20025;-58
2023/09/22 08:37:13;;;;;;;4.00;2.20;;;;;;;;;;10345734;28;20493;-58
2023/09/22 08:42:14;;;;;;;4.10;2.35;;;;;;;;;;10369127;28;20026;-58
2023/09/22 08:47:16;;;;;;;5.47;2.40;;;;;;;;;;10356641;28;20486;-59
2023/09/22 08:52:17;;;;;;;6.70;2.13;;;;;;;;;;10369409;28;20025;-59
2023/09/22 08:57:18;;;;;;;8.75;2.30;;;;;;;;;;10357260;28;20026;-59
2023/09/22 09:02:18;;;;;;;7.95;2.35;;;;;;;;;;10355433;28;20092;-59
2023/09/22 09:07:22;;;;;;;3.78;1.80;;;;;;;;;;10344912;28;20030;-59
2023/09/22 09:12:24;;;;;;;6.22;2.15;;;;;;;;;;10362482;28;20026;-58
2023/09/22 09:17:25;;;;;;;9.57;2.20;;;;;;;;;;10357286;28;20485;-58
2023/09/22 09:22:35;;;;;;;4.50;2.17;;;;;;;;;;10360764;28;20034;-58
2023/09/22 09:27:36;;;;;;;3.70;2.17;;;;;;;;;;10352130;28;20034;-59
2023/09/22 09:32:36;;;;;;;3.95;2.15;;;;;;;;;;10360765;28;20060;-59
2023/09/22 09:37:40;;;;;;;6.68;2.22;;;;;;;;;;10361009;28;20481;-59
2023/09/22 09:42:44;;;;;;;9.77;2.17;;;;;;;;;;10368826;28;20113;-59
2023/09/22 09:47:47;;;;;;;4.18;2.20;;;;;;;;;;10349828;28;20043;-58
2023/09/22 09:52:55;;;;;;;6.25;2.10;;;;;;;;;;10360804;28;20018;-59
2023/09/22 09:57:57;;;;;;;6.33;2.33;;;;;;;;;;10367604;28;20030;-59
2023/09/22 10:03:01;;;;;;;7.85;2.25;;;;;;;;;;10340824;28;20474;-59
2023/09/22 10:08:01;;;;;;;4.05;2.20;;;;;;;;;;10365981;28;20101;-59
2023/09/22 10:13:03;;;;;;;6.35;2.47;;;;;;;;;;10352491;28;20032;-59
2023/09/22 10:18:04;;;;;;;5.00;2.08;;;;;;;;;;10353913;28;20033;-59
2023/09/22 10:23:31;;;;;;;9.35;2.03;;;;;;;;;;10364604;28;20425;-59
2023/09/22 10:28:31;;;;;;;3.92;1.90;;;;;;;;;;10341114;28;20038;-59
2023/09/22 10:33:32;;;;;;;2.45;2.00;;;;;;;;;;10352788;28;20029;-59
2023/09/22 10:38:53;;;;;;;7.85;1.95;;;;;;;;;;10356425;28;20364;-59
2023/09/22 10:43:59;;;;;;;4.25;1.92;;;;;;;;;;10328316;28;20019;-59
2023/09/22 10:48:59;;;;;;;5.32;2.22;;;;;;;;;;10345436;28;20124;-59
2023/09/22 10:54:00;;;;;;;4.68;1.70;;;;;;;;;;10352940;28;20104;-59
2023/09/22 10:59:01;;;;;;;2.88;1.88;;;;;;;;;;10365068;28;20026;-59
2023/09/22 11:04:04;;;;;;;5.10;2.17;;;;;;;;;;10364245;28;20021;-59
2023/09/22 11:09:05;;;;;;;5.00;1.75;;;;;;;;;;10351366;28;20030;-59
2023/09/22 11:14:07;;;;;;;2.70;2.03;;;;;;;;;;10352564;28;20033;-59
2023/09/22 11:19:11;;;;;;;6.95;2.20;;;;;;;;;;10351563;28;20478;-58
2023/09/22 11:24:12;;;;;;;5.22;2.08;;;;;;;;;;10360641;28;20029;-59
2023/09/22 11:29:16;;;;;;;4.00;2.30;;;;;;;;;;10366500;28;20041;-58
2023/09/22 11:34:19;;;;;;;3.30;1.77;;;;;;;;;;10330798;28;20392;-59
2023/09/22 11:39:26;;;;;;;3.08;1.95;;;;;;;;;;10360325;28;20505;-59
2023/09/22 11:44:26;;;;;;;4.55;2.40;;;;;;;;;;10347772;28;20042;-59
2023/09/22 11:49:37;;;;;;;5.05;1.95;;;;;;;;;;10342260;28;20042;-59
2023/09/22 11:54:37;;;;;;;4.38;2.00;;;;;;;;;;10334585;28;20026;-59
2023/09/22 11:59:40;;;;;;;3.25;1.83;;;;;;;;;;10354104;28;20029;-59
2023/09/22 12:04:40;;;;;;;10.32;2.10;;;;;;;;;;10349745;28;20527;-59
2023/09/22 12:09:41;;;;;;;5.60;2.15;;;;;;;;;;10362034;28;20036;-59
2023/09/22 12:14:42;;;;;;;5.70;1.90;;;;;;;;;;10350498;28;20474;-59
2023/09/22 12:19:42;;;;;;;2.60;1.90;;;;;;;;;;10341936;28;20085;-59
2023/09/22 12:24:43;;;;;;;3.85;1.80;;;;;;;;;;10361718;28;20113;-59
2023/09/22 12:29:44;;;;;;;5.38;1.83;;;;;;;;;;10339037;28;20301;-59
2023/09/22 12:34:45;;;;;;;2.67;1.90;;;;;;;;;;10352906;28;20559;-59
2023/09/22 12:39:45;;;;;;;5.50;2.00;;;;;;;;;;10357123;28;20038;-59
2023/09/22 12:44:46;;;;;;;3.17;2.00;;;;;;;;;;10362559;28;20030;-59
2023/09/22 12:49:46;;;;;;;3.83;1.88;;;;;;;;;;10353094;28;20073;-58
2023/09/22 12:54:47;;;;;;;7.25;2.10;;;;;;;;;;10365127;28;20080;-59
2023/09/22 12:59:48;;;;;;;5.15;2.00;;;;;;;;;;10340880;28;20068;-58
2023/09/22 13:04:48;;;;;;;8.68;1.90;;;;;;;;;;10345617;28;20026;-58
2023/09/22 13:09:50;;;;;;;12.05;2.20;;;;;;;;;;10353177;28;20041;-58
2023/09/22 13:14:54;;;;;;;8.25;2.10;;;;;;;;;;10342566;28;20124;-58
2023/09/22 13:19:56;;;;;;;8.20;2.20;;;;;;;;;;10337389;28;20478;-58
2023/09/22 13:24:56;;;;;;;11.20;2.50;;;;;;;;;;10338743;28;20104;-59
2023/09/22 13:29:57;;;;;;;8.65;2.13;;;;;;;;;;10339661;28;20025;-59
2023/09/22 13:34:58;;;;;;;12.35;2.40;;;;;;;;;;10338707;28;20100;-59
2023/09/22 13:39:59;;;;;;;8.77;2.45;;;;;;;;;;10345918;28;20034;-59
2023/09/22 13:45:00;;;;;;;9.43;2.40;;;;;;;;;;10334562;28;20037;-59
2023/09/22 13:50:01;;;;;;;6.95;2.55;;;;;;;;;;10363429;28;20061;-59
2023/09/22 13:55:04;;;;;;;8.35;2.67;;;;;;;;;;10359774;28;20027;-58
2023/09/22 14:00:11;;;;;;;9.10;3.05;;;;;;;;;;10339978;28;20149;-58
2023/09/22 14:05:12;;;;;;;7.70;2.87;;;;;;;;;;10348165;28;20121;-58
2023/09/22 14:10:13;;;;;;;6.97;2.88;;;;;;;;;;10345081;28;20040;-58
2023/09/22 14:15:14;;;;;;;7.30;2.97;;;;;;;;;;10352790;28;20037;-59
2023/09/22 14:20:15;;;;;;;13.65;3.15;;;;;;;;;;10353002;28;20029;-58
2023/09/22 14:25:16;;;;;;;14.82;3.25;;;;;;;;;;10343185;28;20089;-58
2023/09/22 14:30:17;;;;;;;9.68;3.13;;;;;;;;;;10334333;28;20099;-59
2023/09/22 14:35:17;;;;;;;61.55;4.60;;;;;;;;;;10357301;28;20509;-59
2023/09/22 14:40:19;;;;;;;27.48;3.95;;;;;;;;;;10364016;28;20097;-63
2023/09/22 14:45:21;;;;;;;33.55;4.13;;;;;;;;;;10339474;28;20030;-61
2023/09/22 14:50:22;;;;;;;42.72;4.50;;;;;;;;;;10365007;28;20030;-60
2023/09/22 14:55:22;;;;;;;36.45;4.90;;;;;;;;;;10359795;28;20033;-60
2023/09/22 15:00:23;;;;;;;30.02;4.38;;;;;;;;;;10334872;28;20033;-59
2023/09/22 15:05:24;;;;;;;18.25;4.13;;;;;;;;;;10339264;28;20034;-61
2023/09/22 15:10:24;;;;;;;17.95;3.47;;;;;;;;;;10346611;28;20242;-60
2023/09/22 15:15:25;;;;;;;18.85;3.58;;;;;;;;;;10353608;28;20067;-61
2023/09/22 15:20:25;;;;;;;12.20;3.40;;;;;;;;;;10355969;28;20126;-59
2023/09/22 15:25:26;;;;;;;12.30;3.55;;;;;;;;;;10358044;28;20507;-61
2023/09/22 15:30:27;;;;;;;10.20;3.17;;;;;;;;;;10363534;28;20022;-59
2023/09/22 15:35:27;;;;;;;12.02;2.47;;;;;;;;;;10363186;28;20381;-59
2023/09/22 15:40:28;;;;;;;9.02;3.20;;;;;;;;;;10362765;28;20462;-59
2023/09/22 15:45:28;;;;;;;8.32;3.53;;;;;;;;;;10351970;28;20031;-60
2023/09/22 15:50:32;;;;;;;10.80;3.55;;;;;;;;;;10340659;28;20030;-62
2023/09/22 15:55:32;;;;;;;13.88;3.28;;;;;;;;;;10351166;28;20034;-60
2023/09/22 16:00:39;;;;;;;10.70;3.10;;;;;;;;;;10351395;28;20026;-59
2023/09/22 16:05:43;;;;;;;13.88;3.28;;;;;;;;;;10340032;28;20066;-59
2023/09/22 16:10:44;;;;;;;12.48;3.50;;;;;;;;;;10354844;28;20032;-61
2023/09/22 16:15:47;;;;;;;12.00;3.10;;;;;;;;;;10346466;28;20060;-59
2023/09/22 16:20:47;;;;;;;10.00;3.10;;;;;;;;;;10360868;28;20030;-60
2023/09/22 16:25:48;;;;;;;6.55;2.78;;;;;;;;;;10346332;28;20481;-59
2023/09/22 16:30:51;;;;;;;8.25;2.80;;;;;;;;;;10333588;28;20377;-59
2023/09/22 16:35:52;;;;;;;7.10;2.92;;;;;;;;;;10335062;28;20038;-59
2023/09/22 16:40:53;;;;;;;9.95;2.65;;;;;;;;;;10348186;28;20026;-60
2023/09/22 16:45:53;;;;;;;6.78;3.10;;;;;;;;;;10347141;28;20038;-59
2023/09/22 16:50:54;;;;;;;7.30;2.83;;;;;;;;;;10343398;28;20022;-59
2023/09/22 16:55:55;;;;;;;6.03;2.65;;;;;;;;;;10344226;28;20045;-59
2023/09/22 17:00:58;;;;;;;9.35;3.05;;;;;;;;;;10347634;28;20034;-59
2023/09/22 17:06:01;;;;;;;8.38;2.80;;;;;;;;;;10348555;28;20121;-59
2023/09/22 17:11:08;;;;;;;8.95;2.95;;;;;;;;;;10355168;28;20127;-59
2023/09/22 17:16:09;;;;;;;5.00;2.47;;;;;;;;;;10348789;28;20036;-58
2023/09/22 17:21:09;;;;;;;10.20;3.30;;;;;;;;;;10350386;28;20040;-62
2023/09/22 17:26:11;;;;;;;9.85;3.15;;;;;;;;;;10351725;28;20088;-63
2023/09/22 17:31:14;;;;;;;12.93;3.38;;;;;;;;;;10343535;28;20026;-62
2023/09/22 17:36:16;;;;;;;9.57;3.00;;;;;;;;;;10349034;28;20041;-58
2023/09/22 17:41:22;;;;;;;8.20;3.05;;;;;;;;;;10341699;28;20034;-59
2023/09/22 17:46:25;;;;;;;7.65;3.05;;;;;;;;;;10351104;28;20518;-62
2023/09/22 17:51:25;;;;;;;5.47;2.80;;;;;;;;;;10339028;28;20057;-61
2023/09/22 17:56:26;;;;;;;5.40;2.90;;;;;;;;;;10339314;28;20041;-61
2023/09/22 18:01:27;;;;;;;6.78;3.05;;;;;;;;;;10329925;28;20104;-62
2023/09/22 18:06:27;;;;;;;9.48;3.10;;;;;;;;;;10338963;28;20035;-62
2023/09/22 18:11:28;;;;;;;8.93;2.83;;;;;;;;;;10347385;28;20026;-62
2023/09/22 18:16:29;;;;;;;8.90;2.97;;;;;;;;;;10347009;28;20030;-62
2023/09/22 18:21:30;;;;;;;10.15;3.33;;;;;;;;;;10345318;28;20612;-62
2023/09/22 18:26:32;;;;;;;11.38;2.90;;;;;;;;;;10340315;28;20030;-61
2023/09/22 18:31:33;;;;;;;7.28;2.90;;;;;;;;;;10340292;28;20367;-61
2023/09/22 18:36:34;;;;;;;6.60;3.00;;;;;;;;;;10335319;28;20037;-60
2023/09/22 18:41:34;;;;;;;9.68;3.22;;;;;;;;;;10342572;28;20406;-63
2023/09/22 18:46:35;;;;;;;9.35;3.53;;;;;;;;;;10351501;28;20045;-62
2023/09/22 18:51:36;;;;;;;13.23;3.90;;;;;;;;;;10355687;28;20117;-62
2023/09/22 18:56:37;;;;;;;20.05;3.72;;;;;;;;;;10350816;28;20061;-67
2023/09/22 19:01:37;;;;;;;15.13;4.13;;;;;;;;;;10352937;28;20100;-67
2023/09/22 19:06:38;;;;;;;22.00;4.47;;;;;;;;;;10352271;28;20034;-67
2023/09/22 19:11:39;;;;;;;13.75;4.45;;;;;;;;;;10356472;28;20482;-67
2023/09/22 19:16:41;;;;;;;15.60;3.83;;;;;;;;;;10345681;28;20033;-67
2023/09/22 19:21:42;;;;;;;15.43;4.20;;;;;;;;;;10339603;28;20493;-67
2023/09/22 19:26:51;;;;;;;13.77;3.97;;;;;;;;;;10348534;28;20033;-63
2023/09/22 19:31:52;;;;;;;8.90;3.38;;;;;;;;;;10341947;28;20029;-60
2023/09/22 19:36:52;;;;;;;7.97;3.80;;;;;;;;;;10336580;28;21427;-67
2023/09/22 19:41:53;;;;;;;7.10;3.13;;;;;;;;;;10332345;28;20053;-67
2023/09/22 19:46:54;;;;;;;10.95;3.75;;;;;;;;;;10337013;28;20129;-66
2023/09/22 19:51:54;;;;;;;9.55;3.30;;;;;;;;;;10334795;28;20034;-66
2023/09/22 19:56:55;;;;;;;11.93;3.40;;;;;;;;;;10344275;28;20041;-68
2023/09/22 20:01:57;;;;;;;5.28;3.08;;;;;;;;;;10337916;28;20030;-64
2023/09/22 20:06:57;;;;;;;9.50;4.18;;;;;;;;;;10341279;28;20022;-59
2023/09/22 20:11:58;;;;;;;8.55;3.42;;;;;;;;;;10337700;28;20375;-59
2023/09/22 20:16:59;;;;;;;10.55;3.20;;;;;;;;;;10342555;28;20045;-59
2023/09/22 20:22:01;;;;;;;8.00;3.30;;;;;;;;;;10341750;28;20022;-60
2023/09/22 20:27:02;;;;;;;7.22;3.45;;;;;;;;;;10327010;28;20030;-58
2023/09/22 20:32:03;;;;;;;10.73;3.05;;;;;;;;;;10345570;28;20049;-58
2023/09/22 20:37:04;;;;;;;12.68;3.92;;;;;;;;;;10349084;28;20029;-58
2023/09/22 20:42:04;;;;;;;7.72;3.63;;;;;;;;;;10344665;28;20021;-58
2023/09/22 20:47:05;;;;;;;11.25;3.58;;;;;;;;;;10345971;28;20054;-63
2023/09/22 20:52:10;;;;;;;8.50;3.10;;;;;;;;;;10332007;28;20112;-61
2023/09/22 20:57:11;;;;;;;11.75;3.78;;;;;;;;;;10344075;28;20029;-66
2023/09/22 21:02:11;;;;;;;15.07;4.25;;;;;;;;;;10340121;28;20034;-62
2023/09/22 21:07:13;;;;;;;14.07;4.00;;;;;;;;;;10343042;28;20022;-66
2023/09/22 21:12:14;;;;;;;9.85;3.90;;;;;;;;;;10342060;28;20330;-60
2023/09/22 21:17:14;;;;;;;8.00;3.35;;;;;;;;;;10342967;28;20278;-58
2023/09/22 21:22:15;;;;;;;8.20;3.60;;;;;;;;;;10342236;28;20385;-58
2023/09/22 21:27:15;;;;;;;16.15;3.60;;;;;;;;;;10344749;28;20038;-57
2023/09/22 21:32:16;;;;;;;15.88;3.83;;;;;;;;;;10342804;28;20105;-56
2023/09/22 21:37:17;;;;;;;8.30;3.33;;;;;;;;;;10353287;28;20030;-53
2023/09/22 21:42:17;;;;;;;21.77;4.18;;;;;;;;;;10353016;28;20117;-53
2023/09/22 21:47:19;;;;;;;15.13;4.35;;;;;;;;;;10340912;28;20046;-53
2023/09/22 21:52:21;;;;;;;13.82;4.30;;;;;;;;;;10358612;28;20046;-58
2023/09/22 21:57:22;;;;;;;16.88;4.47;;;;;;;;;;10359934;28;20038;-58
2023/09/22 22:02:23;;;;;;;14.40;3.90;;;;;;;;;;10344240;28;20030;-58
2023/09/22 22:07:30;;;;;;;12.68;4.13;;;;;;;;;;10357238;28;20058;-55
2023/09/22 22:12:31;;;;;;;15.63;4.53;;;;;;;;;;10365807;28;20030;-58
2023/09/22 22:17:35;;;;;;;14.18;4.40;;;;;;;;;;10365886;28;20048;-57
2023/09/22 22:22:36;;;;;;;10.32;4.10;;;;;;;;;;10360949;28;20030;-58
2023/09/22 22:27:36;;;;;;;11.82;4.30;;;;;;;;;;10366330;28;20026;-57
2023/09/22 22:32:37;;;;;;;18.33;3.97;;;;;;;;;;10356281;28;20486;-58
2023/09/22 22:37:38;;;;;;;15.80;4.40;;;;;;;;;;10357297;28;20871;-56
2023/09/22 22:42:40;;;;;;;11.32;4.72;;;;;;;;;;10362976;28;20233;-56
2023/09/22 22:47:41;;;;;;;10.63;4.55;;;;;;;;;;10347494;28;20371;-56
2023/09/22 22:52:41;;;;;;;11.05;3.92;;;;;;;;;;10356087;28;20038;-56
2023/09/22 22:57:46;;;;;;;14.32;5.13;;;;;;;;;;10343922;28;20034;-56
2023/09/22 23:02:48;;;;;;;11.55;4.57;;;;;;;;;;10351644;28;20150;-56
2023/09/22 23:07:49;;;;;;;14.07;4.00;;;;;;;;;;10351544;28;20033;-58
2023/09/22 23:12:50;;;;;;;14.13;4.30;;;;;;;;;;10340723;28;20037;-57
2023/09/22 23:17:54;;;;;;;8.95;4.03;;;;;;;;;;10339172;28;20030;-57
2023/09/22 23:22:56;;;;;;;14.57;4.32;;;;;;;;;;10342916;28;20501;-58
2023/09/22 23:27:57;;;;;;;11.73;4.78;;;;;;;;;;10341890;28;20074;-58
2023/09/22 23:33:02;;;;;;;16.73;4.85;;;;;;;;;;10364474;28;20120;-57
2023/09/22 23:38:03;;;;;;;8.85;4.05;;;;;;;;;;10351763;28;20532;-50
2023/09/22 23:43:04;;;;;;;14.90;4.45;;;;;;;;;;10363091;28;20049;-57
2023/09/22 23:48:05;;;;;;;12.90;4.57;;;;;;;;;;10340308;28;20480;-51
2023/09/22 23:53:05;;;;;;;10.57;3.83;;;;;;;;;;10339077;28;20113;-51
2023/09/22 23:58:09;;;;;;;17.13;4.18;;;;;;;;;;10353522;28;20030;-51
